sensor_id;sensor_type;location;lat;lon;timestamp;P1;durP1;ratioP1;P2;durP2;ratioP2
54539;SDS011;40438;52.992;18.604;2022-10-31T00:02:19;58.90;;;22.95;;
54539;SDS011;40438;52.992;18.604;2022-10-31T00:04:45;68.18;;;23.00;;
54539;SDS011;40438;52.992;18.604;2022-10-31T00:07:12;57.28;;;21.85;;
54539;SDS011;40438;52.992;18.604;2022-10-31T00:09:38;48.75;;;21.42;;
54539;SDS011;40438;52.992;18.604;2022-10-31T00:12:04;44.22;;;19.55;;
54539;SDS011;40438;52.992;18.604;2022-10-31T00:14:30;57.10;;;19.83;;
54539;SDS011;40438;52.992;18.604;2022-10-31T00:16:55;53.47;;;18.13;;
54539;SDS011;40438;52.992;18.604;2022-10-31T00:19:21;43.45;;;18.30;;
54539;SDS011;40438;52.992;18.604;2022-10-31T00:21:47;47.47;;;18.85;;
54539;SDS011;40438;52.992;18.604;2022-10-31T00:24:14;42.83;;;16.10;;
54539;SDS011;40438;52.992;18.604;2022-10-31T00:26:40;41.38;;;17.92;;
54539;SDS011;40438;52.992;18.604;2022-10-31T00:29:06;48.85;;;16.58;;
54539;SDS011;40438;52.992;18.604;2022-10-31T00:31:31;57.92;;;17.60;;
54539;SDS011;40438;52.992;18.604;2022-10-31T00:33:58;62.90;;;17.38;;
54539;SDS011;40438;52.992;18.604;2022-10-31T00:36:25;51.85;;;16.65;;
54539;SDS011;40438;52.992;18.604;2022-10-31T00:38:51;47.40;;;17.60;;
54539;SDS011;40438;52.992;18.604;2022-10-31T00:41:22;31.15;;;15.88;;
54539;SDS011;40438;52.992;18.604;2022-10-31T00:43:47;39.53;;;17.48;;
54539;SDS011;40438;52.992;18.604;2022-10-31T00:46:13;42.15;;;16.08;;
54539;SDS011;40438;52.992;18.604;2022-10-31T00:48:40;49.90;;;17.65;;
54539;SDS011;40438;52.992;18.604;2022-10-31T00:51:06;50.28;;;15.82;;
54539;SDS011;40438;52.992;18.604;2022-10-31T00:53:32;44.85;;;17.27;;
54539;SDS011;40438;52.992;18.604;2022-10-31T00:55:58;52.10;;;17.58;;
54539;SDS011;40438;52.992;18.604;2022-10-31T00:58:26;51.53;;;16.75;;
54539;SDS011;40438;52.992;18.604;2022-10-31T01:00:52;40.15;;;16.88;;
54539;SDS011;40438;52.992;18.604;2022-10-31T01:03:18;39.38;;;17.08;;
54539;SDS011;40438;52.992;18.604;2022-10-31T01:05:43;39.15;;;17.42;;
54539;SDS011;40438;52.992;18.604;2022-10-31T01:08:09;35.15;;;16.58;;
54539;SDS011;40438;52.992;18.604;2022-10-31T01:10:35;51.15;;;15.82;;
54539;SDS011;40438;52.992;18.604;2022-10-31T01:13:01;34.90;;;16.17;;
54539;SDS011;40438;52.992;18.604;2022-10-31T01:15:28;49.38;;;17.75;;
54539;SDS011;40438;52.992;18.604;2022-10-31T01:17:53;54.35;;;17.33;;
54539;SDS011;40438;52.992;18.604;2022-10-31T01:20:19;41.00;;;16.45;;
54539;SDS011;40438;52.992;18.604;2022-10-31T01:22:45;41.90;;;17.05;;
54539;SDS011;40438;52.992;18.604;2022-10-31T01:25:11;36.97;;;16.92;;
54539;SDS011;40438;52.992;18.604;2022-10-31T01:27:37;39.97;;;17.17;;
54539;SDS011;40438;52.992;18.604;2022-10-31T01:30:06;43.30;;;17.83;;
54539;SDS011;40438;52.992;18.604;2022-10-31T01:32:34;36.65;;;16.25;;
54539;SDS011;40438;52.992;18.604;2022-10-31T01:34:59;39.47;;;18.00;;
54539;SDS011;40438;52.992;18.604;2022-10-31T01:37:25;54.25;;;19.13;;
54539;SDS011;40438;52.992;18.604;2022-10-31T01:39:51;56.83;;;19.05;;
54539;SDS011;40438;52.992;18.604;2022-10-31T01:42:18;52.85;;;17.73;;
54539;SDS011;40438;52.992;18.604;2022-10-31T01:44:53;38.63;;;17.42;;
54539;SDS011;40438;52.992;18.604;2022-10-31T01:47:29;41.33;;;18.05;;
54539;SDS011;40438;52.992;18.604;2022-10-31T01:50:02;47.60;;;18.23;;
54539;SDS011;40438;52.992;18.604;2022-10-31T01:52:30;33.42;;;17.25;;
54539;SDS011;40438;52.992;18.604;2022-10-31T01:55:01;43.38;;;18.48;;
54539;SDS011;40438;52.992;18.604;2022-10-31T01:57:30;54.20;;;18.48;;
54539;SDS011;40438;52.992;18.604;2022-10-31T02:00:00;45.45;;;17.40;;
54539;SDS011;40438;52.992;18.604;2022-10-31T02:02:40;63.85;;;19.88;;
54539;SDS011;40438;52.992;18.604;2022-10-31T02:05:08;38.33;;;18.90;;
54539;SDS011;40438;52.992;18.604;2022-10-31T02:07:39;43.15;;;19.25;;
54539;SDS011;40438;52.992;18.604;2022-10-31T02:10:11;48.60;;;18.20;;
54539;SDS011;40438;52.992;18.604;2022-10-31T02:12:37;49.45;;;17.95;;
54539;SDS011;40438;52.992;18.604;2022-10-31T02:15:04;48.78;;;18.95;;
54539;SDS011;40438;52.992;18.604;2022-10-31T02:17:31;34.92;;;17.65;;
54539;SDS011;40438;52.992;18.604;2022-10-31T02:20:00;41.50;;;18.33;;
54539;SDS011;40438;52.992;18.604;2022-10-31T02:22:34;50.22;;;18.60;;
54539;SDS011;40438;52.992;18.604;2022-10-31T02:25:11;49.15;;;19.88;;
54539;SDS011;40438;52.992;18.604;2022-10-31T02:30:53;41.42;;;18.77;;
54539;SDS011;40438;52.992;18.604;2022-10-31T02:33:25;41.13;;;18.45;;
54539;SDS011;40438;52.992;18.604;2022-10-31T02:36:03;72.90;;;18.38;;
54539;SDS011;40438;52.992;18.604;2022-10-31T02:38:40;45.72;;;18.35;;
54539;SDS011;40438;52.992;18.604;2022-10-31T02:41:27;41.85;;;20.10;;
54539;SDS011;40438;52.992;18.604;2022-10-31T02:44:06;39.85;;;18.15;;
54539;SDS011;40438;52.992;18.604;2022-10-31T02:46:39;53.70;;;19.70;;
54539;SDS011;40438;52.992;18.604;2022-10-31T02:49:11;47.58;;;18.42;;
54539;SDS011;40438;52.992;18.604;2022-10-31T02:51:43;48.00;;;19.10;;
54539;SDS011;40438;52.992;18.604;2022-10-31T02:54:17;47.70;;;19.92;;
54539;SDS011;40438;52.992;18.604;2022-10-31T02:56:45;46.40;;;19.35;;
54539;SDS011;40438;52.992;18.604;2022-10-31T02:59:11;49.28;;;19.23;;
54539;SDS011;40438;52.992;18.604;2022-10-31T03:01:41;45.28;;;18.77;;
54539;SDS011;40438;52.992;18.604;2022-10-31T03:04:30;48.50;;;18.90;;
54539;SDS011;40438;52.992;18.604;2022-10-31T03:07:15;40.03;;;19.27;;
54539;SDS011;40438;52.992;18.604;2022-10-31T03:09:51;46.63;;;19.73;;
54539;SDS011;40438;52.992;18.604;2022-10-31T03:14:52;48.45;;;17.83;;
54539;SDS011;40438;52.992;18.604;2022-10-31T03:17:23;42.15;;;17.73;;
54539;SDS011;40438;52.992;18.604;2022-10-31T03:19:53;45.50;;;18.75;;
54539;SDS011;40438;52.992;18.604;2022-10-31T03:22:21;47.00;;;18.90;;
54539;SDS011;40438;52.992;18.604;2022-10-31T03:24:50;42.42;;;19.20;;
54539;SDS011;40438;52.992;18.604;2022-10-31T03:27:21;48.90;;;19.10;;
54539;SDS011;40438;52.992;18.604;2022-10-31T03:29:49;41.60;;;18.02;;
54539;SDS011;40438;52.992;18.604;2022-10-31T03:32:19;46.75;;;19.63;;
54539;SDS011;40438;52.992;18.604;2022-10-31T03:34:51;37.38;;;17.80;;
54539;SDS011;40438;52.992;18.604;2022-10-31T03:37:21;44.85;;;18.33;;
54539;SDS011;40438;52.992;18.604;2022-10-31T03:39:51;58.20;;;18.05;;
54539;SDS011;40438;52.992;18.604;2022-10-31T03:42:22;84.68;;;18.48;;
54539;SDS011;40438;52.992;18.604;2022-10-31T03:44:52;48.03;;;17.52;;
54539;SDS011;40438;52.992;18.604;2022-10-31T03:47:21;81.53;;;17.58;;
54539;SDS011;40438;52.992;18.604;2022-10-31T03:49:49;53.42;;;16.70;;
54539;SDS011;40438;52.992;18.604;2022-10-31T03:52:17;35.08;;;16.90;;
54539;SDS011;40438;52.992;18.604;2022-10-31T03:54:50;49.67;;;17.20;;
54539;SDS011;40438;52.992;18.604;2022-10-31T03:57:22;52.30;;;16.42;;
54539;SDS011;40438;52.992;18.604;2022-10-31T03:59:53;35.95;;;17.00;;
54539;SDS011;40438;52.992;18.604;2022-10-31T04:02:26;76.78;;;18.27;;
54539;SDS011;40438;52.992;18.604;2022-10-31T04:04:55;47.03;;;17.08;;
54539;SDS011;40438;52.992;18.604;2022-10-31T04:07:21;83.45;;;18.23;;
54539;SDS011;40438;52.992;18.604;2022-10-31T04:09:50;53.90;;;18.50;;
54539;SDS011;40438;52.992;18.604;2022-10-31T04:12:19;62.80;;;16.65;;
54539;SDS011;40438;52.992;18.604;2022-10-31T04:15:12;64.15;;;18.02;;
54539;SDS011;40438;52.992;18.604;2022-10-31T04:17:41;57.50;;;17.48;;
54539;SDS011;40438;52.992;18.604;2022-10-31T04:20:10;92.93;;;18.83;;
54539;SDS011;40438;52.992;18.604;2022-10-31T04:22:40;45.38;;;18.10;;
54539;SDS011;40438;52.992;18.604;2022-10-31T04:25:06;64.50;;;17.48;;
54539;SDS011;40438;52.992;18.604;2022-10-31T04:27:32;79.18;;;18.05;;
54539;SDS011;40438;52.992;18.604;2022-10-31T04:29:58;83.90;;;18.25;;
54539;SDS011;40438;52.992;18.604;2022-10-31T04:32:25;40.55;;;18.10;;
54539;SDS011;40438;52.992;18.604;2022-10-31T04:34:54;43.28;;;17.35;;
54539;SDS011;40438;52.992;18.604;2022-10-31T04:37:20;64.93;;;18.42;;
54539;SDS011;40438;52.992;18.604;2022-10-31T04:39:47;79.32;;;18.15;;
54539;SDS011;40438;52.992;18.604;2022-10-31T04:42:31;66.28;;;17.73;;
54539;SDS011;40438;52.992;18.604;2022-10-31T04:45:00;42.78;;;17.90;;
54539;SDS011;40438;52.992;18.604;2022-10-31T04:47:25;96.35;;;19.15;;
54539;SDS011;40438;52.992;18.604;2022-10-31T04:49:52;86.50;;;20.70;;
54539;SDS011;40438;52.992;18.604;2022-10-31T04:52:19;81.55;;;19.02;;
54539;SDS011;40438;52.992;18.604;2022-10-31T04:54:45;51.63;;;19.70;;
54539;SDS011;40438;52.992;18.604;2022-10-31T04:57:30;82.28;;;17.75;;
54539;SDS011;40438;52.992;18.604;2022-10-31T04:59:59;87.38;;;18.77;;
54539;SDS011;40438;52.992;18.604;2022-10-31T05:02:24;49.17;;;17.92;;
54539;SDS011;40438;52.992;18.604;2022-10-31T05:04:55;60.88;;;16.55;;
54539;SDS011;40438;52.992;18.604;2022-10-31T05:07:23;93.18;;;17.75;;
54539;SDS011;40438;52.992;18.604;2022-10-31T05:09:49;47.80;;;16.23;;
54539;SDS011;40438;52.992;18.604;2022-10-31T05:12:17;81.53;;;18.38;;
54539;SDS011;40438;52.992;18.604;2022-10-31T05:15:02;59.22;;;18.42;;
54539;SDS011;40438;52.992;18.604;2022-10-31T05:17:46;68.40;;;18.33;;
54539;SDS011;40438;52.992;18.604;2022-10-31T05:20:41;58.33;;;17.13;;
54539;SDS011;40438;52.992;18.604;2022-10-31T05:23:24;52.97;;;17.33;;
54539;SDS011;40438;52.992;18.604;2022-10-31T05:25:50;67.25;;;16.73;;
54539;SDS011;40438;52.992;18.604;2022-10-31T05:28:16;79.10;;;18.02;;
54539;SDS011;40438;52.992;18.604;2022-10-31T05:30:42;49.28;;;16.70;;
54539;SDS011;40438;52.992;18.604;2022-10-31T05:33:11;59.78;;;17.25;;
54539;SDS011;40438;52.992;18.604;2022-10-31T05:36:03;37.83;;;16.52;;
54539;SDS011;40438;52.992;18.604;2022-10-31T05:38:38;43.83;;;16.23;;
54539;SDS011;40438;52.992;18.604;2022-10-31T05:41:22;44.30;;;17.02;;
54539;SDS011;40438;52.992;18.604;2022-10-31T05:43:49;78.20;;;16.27;;
54539;SDS011;40438;52.992;18.604;2022-10-31T05:46:19;67.60;;;15.20;;
54539;SDS011;40438;52.992;18.604;2022-10-31T05:49:03;42.05;;;16.42;;
54539;SDS011;40438;52.992;18.604;2022-10-31T05:52:02;37.33;;;15.68;;
54539;SDS011;40438;52.992;18.604;2022-10-31T05:54:41;41.30;;;15.20;;
54539;SDS011;40438;52.992;18.604;2022-10-31T05:57:07;49.97;;;16.40;;
54539;SDS011;40438;52.992;18.604;2022-10-31T05:59:33;43.90;;;16.20;;
54539;SDS011;40438;52.992;18.604;2022-10-31T06:02:00;46.10;;;16.13;;
54539;SDS011;40438;52.992;18.604;2022-10-31T06:04:46;45.55;;;15.48;;
54539;SDS011;40438;52.992;18.604;2022-10-31T06:07:12;45.35;;;16.58;;
54539;SDS011;40438;52.992;18.604;2022-10-31T06:09:37;50.33;;;17.42;;
54539;SDS011;40438;52.992;18.604;2022-10-31T06:12:07;51.13;;;16.30;;
54539;SDS011;40438;52.992;18.604;2022-10-31T06:14:52;48.22;;;17.10;;
54539;SDS011;40438;52.992;18.604;2022-10-31T06:17:18;38.45;;;15.57;;
54539;SDS011;40438;52.992;18.604;2022-10-31T06:19:47;53.75;;;15.93;;
54539;SDS011;40438;52.992;18.604;2022-10-31T06:22:18;40.05;;;14.77;;
54539;SDS011;40438;52.992;18.604;2022-10-31T06:24:44;55.80;;;17.08;;
54539;SDS011;40438;52.992;18.604;2022-10-31T06:27:20;39.15;;;15.48;;
54539;SDS011;40438;52.992;18.604;2022-10-31T06:29:45;47.58;;;16.20;;
54539;SDS011;40438;52.992;18.604;2022-10-31T06:32:19;44.05;;;15.00;;
54539;SDS011;40438;52.992;18.604;2022-10-31T06:34:45;56.50;;;15.63;;
54539;SDS011;40438;52.992;18.604;2022-10-31T06:37:13;43.88;;;16.58;;
54539;SDS011;40438;52.992;18.604;2022-10-31T06:39:43;35.38;;;15.32;;
54539;SDS011;40438;52.992;18.604;2022-10-31T06:42:10;37.88;;;16.08;;
54539;SDS011;40438;52.992;18.604;2022-10-31T06:44:38;33.83;;;15.73;;
54539;SDS011;40438;52.992;18.604;2022-10-31T06:47:22;55.65;;;16.35;;
54539;SDS011;40438;52.992;18.604;2022-10-31T06:49:53;61.03;;;16.38;;
54539;SDS011;40438;52.992;18.604;2022-10-31T06:52:22;35.15;;;16.50;;
54539;SDS011;40438;52.992;18.604;2022-10-31T06:54:47;37.92;;;16.05;;
54539;SDS011;40438;52.992;18.604;2022-10-31T06:57:13;51.83;;;16.88;;
54539;SDS011;40438;52.992;18.604;2022-10-31T06:59:41;37.58;;;16.92;;
54539;SDS011;40438;52.992;18.604;2022-10-31T07:02:16;41.00;;;16.35;;
54539;SDS011;40438;52.992;18.604;2022-10-31T07:04:42;35.80;;;16.77;;
54539;SDS011;40438;52.992;18.604;2022-10-31T07:07:12;51.30;;;17.02;;
54539;SDS011;40438;52.992;18.604;2022-10-31T07:09:38;33.72;;;16.33;;
54539;SDS011;40438;52.992;18.604;2022-10-31T07:12:04;37.35;;;15.07;;
54539;SDS011;40438;52.992;18.604;2022-10-31T07:14:34;51.80;;;16.50;;
54539;SDS011;40438;52.992;18.604;2022-10-31T07:17:02;44.90;;;16.48;;
54539;SDS011;40438;52.992;18.604;2022-10-31T07:19:33;46.08;;;15.18;;
54539;SDS011;40438;52.992;18.604;2022-10-31T07:21:59;41.03;;;17.05;;
54539;SDS011;40438;52.992;18.604;2022-10-31T07:24:27;38.40;;;14.73;;
54539;SDS011;40438;52.992;18.604;2022-10-31T07:27:12;33.40;;;15.32;;
54539;SDS011;40438;52.992;18.604;2022-10-31T07:29:37;53.72;;;15.48;;
54539;SDS011;40438;52.992;18.604;2022-10-31T07:32:05;35.15;;;13.82;;
54539;SDS011;40438;52.992;18.604;2022-10-31T07:34:33;42.42;;;14.68;;
54539;SDS011;40438;52.992;18.604;2022-10-31T07:37:22;38.70;;;15.02;;
54539;SDS011;40438;52.992;18.604;2022-10-31T07:39:53;56.30;;;15.10;;
54539;SDS011;40438;52.992;18.604;2022-10-31T07:42:19;34.67;;;14.90;;
54539;SDS011;40438;52.992;18.604;2022-10-31T07:44:45;38.25;;;14.35;;
54539;SDS011;40438;52.992;18.604;2022-10-31T07:47:31;41.60;;;14.95;;
54539;SDS011;40438;52.992;18.604;2022-10-31T07:50:06;37.08;;;15.75;;
54539;SDS011;40438;52.992;18.604;2022-10-31T07:52:58;44.05;;;14.65;;
54539;SDS011;40438;52.992;18.604;2022-10-31T07:55:42;38.22;;;15.15;;
54539;SDS011;40438;52.992;18.604;2022-10-31T07:58:09;32.28;;;14.90;;
54539;SDS011;40438;52.992;18.604;2022-10-31T08:00:39;44.65;;;16.55;;
54539;SDS011;40438;52.992;18.604;2022-10-31T08:03:09;41.20;;;17.20;;
54539;SDS011;40438;52.992;18.604;2022-10-31T08:06:05;38.78;;;16.95;;
54539;SDS011;40438;52.992;18.604;2022-10-31T08:08:50;40.95;;;17.65;;
54539;SDS011;40438;52.992;18.604;2022-10-31T08:11:17;38.67;;;17.13;;
54539;SDS011;40438;52.992;18.604;2022-10-31T08:13:43;40.03;;;15.68;;
54539;SDS011;40438;52.992;18.604;2022-10-31T08:16:11;42.35;;;17.27;;
54539;SDS011;40438;52.992;18.604;2022-10-31T08:18:49;38.58;;;16.05;;
54539;SDS011;40438;52.992;18.604;2022-10-31T08:21:15;47.30;;;17.02;;
54539;SDS011;40438;52.992;18.604;2022-10-31T08:23:43;40.15;;;18.80;;
54539;SDS011;40438;52.992;18.604;2022-10-31T08:26:09;45.65;;;17.40;;
54539;SDS011;40438;52.992;18.604;2022-10-31T08:28:35;46.50;;;18.50;;
54539;SDS011;40438;52.992;18.604;2022-10-31T08:31:02;35.70;;;16.17;;
54539;SDS011;40438;52.992;18.604;2022-10-31T08:33:39;38.13;;;15.70;;
54539;SDS011;40438;52.992;18.604;2022-10-31T08:36:09;46.15;;;16.80;;
54539;SDS011;40438;52.992;18.604;2022-10-31T08:38:47;31.52;;;16.15;;
54539;SDS011;40438;52.992;18.604;2022-10-31T08:41:13;39.63;;;17.20;;
54539;SDS011;40438;52.992;18.604;2022-10-31T08:43:39;30.73;;;16.10;;
54539;SDS011;40438;52.992;18.604;2022-10-31T08:46:06;40.05;;;16.40;;
54539;SDS011;40438;52.992;18.604;2022-10-31T08:48:32;43.33;;;16.30;;
54539;SDS011;40438;52.992;18.604;2022-10-31T08:50:59;32.35;;;15.57;;
54539;SDS011;40438;52.992;18.604;2022-10-31T08:53:28;37.20;;;16.45;;
54539;SDS011;40438;52.992;18.604;2022-10-31T08:56:26;38.22;;;15.65;;
54539;SDS011;40438;52.992;18.604;2022-10-31T08:58:52;36.33;;;15.10;;
54539;SDS011;40438;52.992;18.604;2022-10-31T09:01:26;53.15;;;16.00;;
54539;SDS011;40438;52.992;18.604;2022-10-31T09:03:51;51.90;;;17.48;;
54539;SDS011;40438;52.992;18.604;2022-10-31T09:06:17;37.20;;;15.73;;
54539;SDS011;40438;52.992;18.604;2022-10-31T09:08:48;37.75;;;15.75;;
54539;SDS011;40438;52.992;18.604;2022-10-31T09:11:15;40.17;;;15.65;;
54539;SDS011;40438;52.992;18.604;2022-10-31T09:14:01;35.47;;;15.85;;
54539;SDS011;40438;52.992;18.604;2022-10-31T09:16:39;32.00;;;16.15;;
54539;SDS011;40438;52.992;18.604;2022-10-31T09:19:09;38.20;;;15.73;;
54539;SDS011;40438;52.992;18.604;2022-10-31T09:21:35;33.20;;;15.98;;
54539;SDS011;40438;52.992;18.604;2022-10-31T09:24:03;33.47;;;15.95;;
54539;SDS011;40438;52.992;18.604;2022-10-31T09:26:30;49.92;;;16.58;;
54539;SDS011;40438;52.992;18.604;2022-10-31T09:29:12;41.35;;;16.45;;
54539;SDS011;40438;52.992;18.604;2022-10-31T09:31:38;38.15;;;16.20;;
54539;SDS011;40438;52.992;18.604;2022-10-31T09:34:24;33.35;;;15.40;;
54539;SDS011;40438;52.992;18.604;2022-10-31T09:37:23;36.88;;;15.70;;
54539;SDS011;40438;52.992;18.604;2022-10-31T09:39:51;35.28;;;16.40;;
54539;SDS011;40438;52.992;18.604;2022-10-31T09:42:30;41.10;;;15.80;;
54539;SDS011;40438;52.992;18.604;2022-10-31T09:45:15;37.25;;;16.05;;
54539;SDS011;40438;52.992;18.604;2022-10-31T09:47:49;37.63;;;16.98;;
54539;SDS011;40438;52.992;18.604;2022-10-31T09:50:34;32.70;;;16.08;;
54539;SDS011;40438;52.992;18.604;2022-10-31T09:53:36;33.00;;;15.20;;
54539;SDS011;40438;52.992;18.604;2022-10-31T09:56:08;34.28;;;14.48;;
54539;SDS011;40438;52.992;18.604;2022-10-31T09:58:39;33.08;;;15.90;;
54539;SDS011;40438;52.992;18.604;2022-10-31T10:01:09;38.03;;;15.52;;
54539;SDS011;40438;52.992;18.604;2022-10-31T10:03:46;47.75;;;16.75;;
54539;SDS011;40438;52.992;18.604;2022-10-31T10:06:38;38.53;;;16.02;;
54539;SDS011;40438;52.992;18.604;2022-10-31T10:09:28;43.35;;;16.95;;
54539;SDS011;40438;52.992;18.604;2022-10-31T10:12:18;44.33;;;15.63;;
54539;SDS011;40438;52.992;18.604;2022-10-31T10:14:57;45.10;;;16.77;;
54539;SDS011;40438;52.992;18.604;2022-10-31T10:17:40;47.72;;;19.45;;
54539;SDS011;40438;52.992;18.604;2022-10-31T10:20:17;39.88;;;16.30;;
54539;SDS011;40438;52.992;18.604;2022-10-31T10:22:52;57.35;;;15.85;;
54539;SDS011;40438;52.992;18.604;2022-10-31T10:25:28;35.95;;;16.30;;
54539;SDS011;40438;52.992;18.604;2022-10-31T10:28:04;42.42;;;16.95;;
54539;SDS011;40438;52.992;18.604;2022-10-31T10:30:40;76.50;;;17.42;;
54539;SDS011;40438;52.992;18.604;2022-10-31T10:33:10;46.50;;;16.52;;
54539;SDS011;40438;52.992;18.604;2022-10-31T10:35:41;47.95;;;16.08;;
54539;SDS011;40438;52.992;18.604;2022-10-31T10:38:12;38.05;;;15.90;;
54539;SDS011;40438;52.992;18.604;2022-10-31T10:40:46;41.10;;;18.10;;
54539;SDS011;40438;52.992;18.604;2022-10-31T10:43:24;39.75;;;17.95;;
54539;SDS011;40438;52.992;18.604;2022-10-31T10:48:28;36.35;;;15.35;;
54539;SDS011;40438;52.992;18.604;2022-10-31T10:51:02;56.42;;;17.75;;
54539;SDS011;40438;52.992;18.604;2022-10-31T10:53:37;48.38;;;16.30;;
54539;SDS011;40438;52.992;18.604;2022-10-31T10:56:11;34.85;;;16.30;;
54539;SDS011;40438;52.992;18.604;2022-10-31T10:58:42;47.65;;;17.75;;
54539;SDS011;40438;52.992;18.604;2022-10-31T11:01:11;43.92;;;15.63;;
54539;SDS011;40438;52.992;18.604;2022-10-31T11:03:38;44.50;;;18.92;;
54539;SDS011;40438;52.992;18.604;2022-10-31T11:06:15;39.65;;;17.77;;
54539;SDS011;40438;52.992;18.604;2022-10-31T11:08:42;67.10;;;17.85;;
54539;SDS011;40438;52.992;18.604;2022-10-31T11:11:10;52.13;;;20.42;;
54539;SDS011;40438;52.992;18.604;2022-10-31T11:13:46;45.17;;;19.67;;
54539;SDS011;40438;52.992;18.604;2022-10-31T11:16:14;48.40;;;20.70;;
54539;SDS011;40438;52.992;18.604;2022-10-31T11:18:53;47.72;;;19.30;;
54539;SDS011;40438;52.992;18.604;2022-10-31T11:21:29;40.38;;;18.48;;
54539;SDS011;40438;52.992;18.604;2022-10-31T11:24:01;39.30;;;17.98;;
54539;SDS011;40438;52.992;18.604;2022-10-31T11:26:28;36.42;;;17.10;;
54539;SDS011;40438;52.992;18.604;2022-10-31T11:28:58;57.15;;;18.02;;
54539;SDS011;40438;52.992;18.604;2022-10-31T11:31:24;45.17;;;17.92;;
54539;SDS011;40438;52.992;18.604;2022-10-31T11:33:53;40.03;;;16.80;;
54539;SDS011;40438;52.992;18.604;2022-10-31T11:36:24;37.30;;;17.05;;
54539;SDS011;40438;52.992;18.604;2022-10-31T11:38:52;44.55;;;19.70;;
54539;SDS011;40438;52.992;18.604;2022-10-31T11:41:19;45.85;;;18.40;;
54539;SDS011;40438;52.992;18.604;2022-10-31T11:43:51;47.57;;;18.60;;
54539;SDS011;40438;52.992;18.604;2022-10-31T11:46:25;35.90;;;17.17;;
54539;SDS011;40438;52.992;18.604;2022-10-31T11:48:58;44.33;;;17.73;;
54539;SDS011;40438;52.992;18.604;2022-10-31T11:51:26;39.88;;;17.55;;
54539;SDS011;40438;52.992;18.604;2022-10-31T11:53:55;36.85;;;16.17;;
54539;SDS011;40438;52.992;18.604;2022-10-31T11:56:23;51.45;;;18.10;;
54539;SDS011;40438;52.992;18.604;2022-10-31T11:58:55;63.65;;;17.35;;
54539;SDS011;40438;52.992;18.604;2022-10-31T12:03:53;38.88;;;17.00;;
54539;SDS011;40438;52.992;18.604;2022-10-31T12:06:26;60.40;;;18.05;;
54539;SDS011;40438;52.992;18.604;2022-10-31T12:08:54;45.50;;;17.13;;
54539;SDS011;40438;52.992;18.604;2022-10-31T12:11:27;36.50;;;16.48;;
54539;SDS011;40438;52.992;18.604;2022-10-31T12:14:06;40.17;;;17.55;;
54539;SDS011;40438;52.992;18.604;2022-10-31T12:16:44;35.88;;;15.98;;
54539;SDS011;40438;52.992;18.604;2022-10-31T12:19:15;34.55;;;16.70;;
54539;SDS011;40438;52.992;18.604;2022-10-31T12:21:55;41.95;;;18.27;;
54539;SDS011;40438;52.992;18.604;2022-10-31T12:24:36;43.60;;;17.13;;
54539;SDS011;40438;52.992;18.604;2022-10-31T12:27:10;36.92;;;16.98;;
54539;SDS011;40438;52.992;18.604;2022-10-31T12:29:51;40.67;;;17.80;;
54539;SDS011;40438;52.992;18.604;2022-10-31T12:32:31;40.22;;;16.77;;
54539;SDS011;40438;52.992;18.604;2022-10-31T12:35:13;40.17;;;17.90;;
54539;SDS011;40438;52.992;18.604;2022-10-31T12:38:10;40.90;;;17.92;;
54539;SDS011;40438;52.992;18.604;2022-10-31T12:40:55;49.33;;;18.30;;
54539;SDS011;40438;52.992;18.604;2022-10-31T12:43:37;49.33;;;18.20;;
54539;SDS011;40438;52.992;18.604;2022-10-31T12:46:11;70.93;;;18.65;;
54539;SDS011;40438;52.992;18.604;2022-10-31T12:51:53;49.97;;;16.73;;
54539;SDS011;40438;52.992;18.604;2022-10-31T12:54:32;48.05;;;18.27;;
54539;SDS011;40438;52.992;18.604;2022-10-31T12:57:06;52.28;;;19.38;;
54539;SDS011;40438;52.992;18.604;2022-10-31T12:59:39;48.50;;;18.75;;
54539;SDS011;40438;52.992;18.604;2022-10-31T13:02:10;44.28;;;18.55;;
54539;SDS011;40438;52.992;18.604;2022-10-31T13:04:46;46.10;;;18.52;;
54539;SDS011;40438;52.992;18.604;2022-10-31T13:07:18;44.05;;;19.00;;
54539;SDS011;40438;52.992;18.604;2022-10-31T13:09:49;53.10;;;20.92;;
54539;SDS011;40438;52.992;18.604;2022-10-31T13:12:20;46.92;;;18.70;;
54539;SDS011;40438;52.992;18.604;2022-10-31T13:14:48;51.47;;;18.85;;
54539;SDS011;40438;52.992;18.604;2022-10-31T13:17:19;58.60;;;18.15;;
54539;SDS011;40438;52.992;18.604;2022-10-31T13:19:51;52.80;;;19.50;;
54539;SDS011;40438;52.992;18.604;2022-10-31T13:22:21;50.97;;;18.10;;
54539;SDS011;40438;52.992;18.604;2022-10-31T13:24:52;44.20;;;18.58;;
54539;SDS011;40438;52.992;18.604;2022-10-31T13:27:23;49.63;;;18.48;;
54539;SDS011;40438;52.992;18.604;2022-10-31T13:29:54;51.35;;;19.08;;
54539;SDS011;40438;52.992;18.604;2022-10-31T13:32:26;53.75;;;18.95;;
54539;SDS011;40438;52.992;18.604;2022-10-31T13:34:57;51.03;;;19.13;;
54539;SDS011;40438;52.992;18.604;2022-10-31T13:37:27;52.10;;;18.77;;
54539;SDS011;40438;52.992;18.604;2022-10-31T13:40:05;46.72;;;18.23;;
54539;SDS011;40438;52.992;18.604;2022-10-31T13:42:43;45.50;;;18.77;;
54539;SDS011;40438;52.992;18.604;2022-10-31T13:45:19;50.38;;;19.75;;
54539;SDS011;40438;52.992;18.604;2022-10-31T13:47:54;54.10;;;21.58;;
54539;SDS011;40438;52.992;18.604;2022-10-31T13:50:24;54.38;;;21.10;;
54539;SDS011;40438;52.992;18.604;2022-10-31T13:52:51;55.85;;;21.80;;
54539;SDS011;40438;52.992;18.604;2022-10-31T13:55:36;57.53;;;23.20;;
54539;SDS011;40438;52.992;18.604;2022-10-31T13:58:03;54.13;;;20.30;;
54539;SDS011;40438;52.992;18.604;2022-10-31T14:00:30;53.67;;;20.30;;
54539;SDS011;40438;52.992;18.604;2022-10-31T14:02:57;59.85;;;21.98;;
54539;SDS011;40438;52.992;18.604;2022-10-31T14:05:25;51.55;;;20.25;;
54539;SDS011;40438;52.992;18.604;2022-10-31T14:07:52;50.40;;;19.75;;
54539;SDS011;40438;52.992;18.604;2022-10-31T14:10:20;50.17;;;20.45;;
54539;SDS011;40438;52.992;18.604;2022-10-31T14:12:50;51.58;;;20.10;;
54539;SDS011;40438;52.992;18.604;2022-10-31T14:15:19;44.88;;;19.90;;
54539;SDS011;40438;52.992;18.604;2022-10-31T14:17:47;57.92;;;19.45;;
54539;SDS011;40438;52.992;18.604;2022-10-31T14:20:26;49.75;;;19.52;;
54539;SDS011;40438;52.992;18.604;2022-10-31T14:22:58;49.85;;;21.95;;
54539;SDS011;40438;52.992;18.604;2022-10-31T14:25:36;51.53;;;20.55;;
54539;SDS011;40438;52.992;18.604;2022-10-31T14:28:02;52.83;;;21.58;;
54539;SDS011;40438;52.992;18.604;2022-10-31T14:30:50;48.30;;;19.92;;
54539;SDS011;40438;52.992;18.604;2022-10-31T14:33:17;54.22;;;20.13;;
54539;SDS011;40438;52.992;18.604;2022-10-31T14:35:56;41.58;;;17.40;;
54539;SDS011;40438;52.992;18.604;2022-10-31T14:38:29;47.35;;;18.38;;
54539;SDS011;40438;52.992;18.604;2022-10-31T14:41:13;50.58;;;19.70;;
54539;SDS011;40438;52.992;18.604;2022-10-31T14:43:53;46.42;;;17.52;;
54539;SDS011;40438;52.992;18.604;2022-10-31T14:46:38;47.95;;;16.92;;
54539;SDS011;40438;52.992;18.604;2022-10-31T14:49:23;40.67;;;17.70;;
54539;SDS011;40438;52.992;18.604;2022-10-31T14:52:01;51.38;;;18.15;;